Date,TemperatureHighF,TemperatureAvgF,TemperatureLowF,DewpointHighF,DewpointAvgF,DewpointLowF,HumidityHigh,HumidityAvg,HumidityLow,PressureMaxIn,PressureMinIn,WindSpeedMaxMPH,WindSpeedAvgMPH,GustSpeedMaxMPH,PrecipitationSumIn
2013-3-1,41,40,38,-100,-100,-100,0,0,100,0.00,40.00,16,8,31,0.00
2013-3-2,41,38,30,-100,-100,-100,0,0,100,0.00,40.00,20,9,29,0.00
2013-3-3,36,31,28,-100,-100,-100,0,0,100,0.00,40.00,15,4,25,0.00
2013-3-4,38,32,28,-100,-100,-100,0,0,100,0.00,40.00,14,7,22,0.00
2013-3-5,35,32,29,-100,-100,-100,0,0,100,0.00,40.00,20,9,28,0.00
2013-3-6,36,33,31,-100,-100,-100,0,0,100,0.00,40.00,22,5,25,0.00
2013-3-7,42,34,30,-100,-100,-100,0,0,100,0.00,40.00,5,0,7,0.00
2013-3-8,43,35,30,-100,-100,-100,0,0,100,0.00,40.00,6,3,9,0.00
2013-3-9,44,36,31,-100,-100,-100,0,0,100,0.00,40.00,9,3,11,0.00
2013-3-10,36,35,33,-100,-100,-100,0,0,100,0.00,40.00,13,4,13,0.00
2013-3-11,44,36,31,-100,-100,-100,0,0,100,0.00,40.00,9,1,11,0.00
2013-3-12,41,38,31,-100,-100,-100,0,0,100,0.00,40.00,16,7,25,0.00
2013-3-13,47,42,39,-100,-100,-100,0,0,100,0.00,40.00,19,4,21,0.00
2013-3-14,46,42,37,-100,-100,-100,0,0,100,0.00,40.00,12,5,21,0.00
2013-3-15,47,42,38,-100,-100,-100,0,0,100,0.00,40.00,13,3,18,0.00
2013-3-16,40,35,29,-100,-100,-100,0,0,100,0.00,40.00,15,5,27,0.00
2013-3-17,35,31,28,-100,-100,-100,0,0,100,0.00,40.00,13,4,17,0.00
2013-3-18,36,31,28,-100,-100,-100,0,0,100,0.00,40.00,18,5,24,0.00
2013-3-19,39,31,25,-100,-100,-100,0,0,100,0.00,40.00,18,6,22,0.00
2013-3-20,39,34,28,-100,-100,-100,0,0,100,0.00,40.00,20,8,34,0.00
2013-3-21,36,30,26,-100,-100,-100,0,0,100,0.00,40.00,12,2,19,0.00
2013-3-22,35,30,27,-100,-100,-100,0,0,100,0.00,40.00,7,1,10,0.00
2013-3-23,38,30,24,-100,-100,-100,0,0,100,0.00,40.00,7,2,9,0.00
2013-3-24,41,33,26,-100,-100,-100,0,0,100,0.00,40.00,12,3,15,0.00
2013-3-25,52,40,33,-100,-100,-100,0,0,100,0.00,40.00,10,2,12,0.00
2013-3-26,53,43,38,-100,-100,-100,0,0,100,0.00,40.00,8,2,10,0.00
2013-3-27,56,44,38,-100,-100,-100,0,0,100,0.00,40.00,11,3,13,0.00
2013-3-28,56,46,40,-100,-100,-100,0,0,100,0.00,40.00,8,3,10,0.00
2013-3-29,56,46,41,-100,-100,-100,0,0,100,0.00,40.00,8,2,9,0.00
2013-3-30,61,48,40,-100,-100,-100,0,0,100,0.00,40.00,11,3,16,0.00
2013-3-31,66,54,45,-100,-100,-100,0,0,100,0.00,40.00,17,5,22,0.00